Caxito, Angola
Current Conditions -  °F | °C
As of 6:00 PM on Sunday 21 Dec 2014 (Local Time) from FNLU Reporting Station
Scattered Clouds Scattered Clouds  
Wind Chill: 81°   Ceiling: Unl
Heat Index: 85°   Visibility: 6mi
Dew Point: 72°   Wind: 13mph
Humidity: 74%   Direction: 240°WSW
Pressure: 29.85"   Gusts: NA
Location:  8.58°S, 13.66°E
Report Text: FNLU 211700Z 24011KT 9999 SCT024 27/22 Q1011 NOSIG
Loading
Personal Weather Stations






























Interactive Weather Map New forecast layout! Learn more

10-Day Weather Forecast

Advertisements
Track Severe Weather on mobile